Terminal Aerodrome Forecast
Issued by NWS

Home | Current Version | Previous Version | Text Only | Print | Product List | Glossary On
Versions: 1 2 3 4 5 6 7 8 9 10 11 12 13 14 15 16 17 18 19 20
000
FTUS41 KBGM 281700 CCA
TAFITH
TAF COR
KITH 281721Z 2818/2918 24008KT P6SM -SHRA SCT008 OVC015
      TEMPO 2818/2822 2SM -SHRA BR OVC008
     FM290000 31006KT P6SM -SHRA OVC040
     FM290600 31007KT P6SM SCT250=

USA.gov is the U.S. government's official web portal to all federal, state and local government web resources and services.